This is the latest recevied weather packets stored in our database for station/object EA6MW-10. If no packets are shown the sender has not sent any weather packets the latest 10 day(s).
| Time | Temp. | Humidity | Pressure | Rain* | Wind** | Luminosity | Snow |
|---|---|---|---|---|---|---|---|
| 1777920842 | 18.33° C | 72% | 1012.7 hPa | - | - | - | - |
| 1777919941 | 18.33° C | 73% | 1012.7 hPa | - | - | - | - |
| 1777919041 | 18.33° C | 73% | 1012.5 hPa | - | - | - | - |
| 1777917241 | 20° C | 70% | 1012.3 hPa | - | - | - | - |
| 1777916340 | 20.56° C | 68% | 1012.4 hPa | - | - | - | - |
| 1777915440 | 20.56° C | 69% | 1012.6 hPa | - | - | - | - |
| 1777914540 | 20° C | 71% | 1012.6 hPa | - | - | - | - |
| 1777913640 | 19.44° C | 72% | 1012.5 hPa | - | - | - | - |
| 1777912740 | 20° C | 72% | 1012.2 hPa | - | - | - | - |
| 1777911839 | 20.56° C | 70% | 1012.3 hPa | - | - | - | - |
| 1777910938 | 20.56° C | 68% | 1012.3 hPa | - | - | - | - |
| 1777910038 | 21.11° C | 68% | 1012.5 hPa | - | - | - | - |
| 1777909138 | 21.11° C | 69% | 1012.5 hPa | - | - | - | - |
| 1777908238 | 21.11° C | 68% | 1012.6 hPa | - | - | - | - |
| 1777907338 | 21.67° C | 67% | 1012.6 hPa | - | - | - | - |
| 1777906438 | 22.22° C | 66% | 1012.5 hPa | - | - | - | - |
| 1777905537 | 22.78° C | 64% | 1012.6 hPa | - | - | - | - |
| 1777904637 | 23.89° C | 65% | 1012.6 hPa | - | - | - | - |
| 1777903737 | 21.11° C | 75% | 1012.9 hPa | - | - | - | - |
| 1777902837 | 18.33° C | 83% | 1013.3 hPa | - | - | - | - |
| 1777901936 | 21.11° C | 69% | 1013.4 hPa | - | - | - | - |
| 1777901036 | 22.78° C | 65% | 1013.6 hPa | - | - | - | - |
| 1777900136 | 20° C | 77% | 1013.6 hPa | - | - | - | - |
| 1777899236 | 21.11° C | 73% | 1013.5 hPa | - | - | - | - |
| 1777898336 | 19.44° C | 78% | 1013.7 hPa | - | - | - | - |
* Rain since midnight (hover to see other rain measurements)
** Current wind speed in m/s (hover to see current wind gust speed)